Ana Sayfa
METAR-TAF:

METAR-TAF

Havaalanları :

Greenville Downtown Airport

Greenville, Güney Carolina, Amerika Birleşik Devletleri

Enlem: 34-50-46N, Boylam: 082-20-46W, yükseklik: 319 m

Güncel hava durumu gözlemi

Rapor saat 01:53 UTC de 56 dakika önce yapıldı.
Rüzgar kuzeydan 7 kt
Sıcaklık 0°C
Nem 43%
Basınç 1029 hPa
Görüş mesafesi: 16.1 km
Açık gökyüzü

METAR: KGMU 220153Z 36007KT 10SM CLR 00/M11 A3038 RMK AO2 SLP297 T00001106

Saat: 21:49 (02:49 UTC)

Tahmin

Rapor saat 23:25 UTC de 3 saat ve 24 dakika önce yapıldı.
Ayın 22'si saat 00 UTC'den ayın 22'si saat 24 UTC'ye kadar geçerli Tahmin
Rüzgar kuzeydan 8 kt
Görüş mesafesi: 10 km
Açık gökyüzü
Ayın 22'si saat 0200 UTC'den
Rüzgar kuzey/kuzeydoğudan 5 kt
Görüş mesafesi: 10 km
Açık gökyüzü
Ayın 22'si saat 1900 UTC'den
Rüzgar doğu/kuzeydoğudan 6 kt
Görüş mesafesi: 10 km
25000 ft yükseklikte az bulutlu

TAF: KGMU 212325Z 2200/2224 36008KT P6SM SKC FM220200 03005KT P6SM SKC FM221900 06006KT P6SM FEW250

4.000'den fazla havaalanı için hava durumu gözlemleri ve tahminleri (METAR ve TAF raporları).

Kullanılabilir istasyonlar harita üzerinde sarı ve kırmızı noktalarla gösterilir.

İstasyonun adını görmek için fareyi noktanın üzerinde gezdirin.

Sonrasında hava gözlem ve tahminlerini görmek için tıklayın.

Haritayı değiştirmek için: yaklaştırmak için siyah artı işaretli yeşil düğmeye ve uzaklaştırmak için de eksi işaretli düğmeye hızla tıklayın; bitişik haritalar için yeşil okları kullanın.


METAR-TAF: